Posted in: FS2004, FSX, News, simMarket Tags: , , , , ,

LatinVFR – Caracas 2012 for FS2004 as well

If you read again Latin Hub Caracas SVMI at simMarket homepage, it’s because the FS2004 version of LatinVFR is ready for download.

It’s included with the FSX package of Maiquetia airport. The actual METAR depicts well the regular weather : hot and no wind… SVMI 131800Z 00000KT 9999 BKN016 29/25 Q1013 NOSIG

About Sebastien

Comments are closed.